Time;durP1;ratioP1;P1;durP2;ratioP2;P2;SDS_P1;SDS_P2;PMS_P1;PMS_P2;Temp;Humidity;BMP_temperature;BMP_pressure;BME280_temperature;BME280_humidity;BME280_pressure;Samples;Min_cycle;Max_cycle;Signal;HPM_P1;HPM_P2
2023/11/09 00:00:40;;;;;;;9.85;5.82;;;;;;;;;;5056606;28;20470;-72
2023/11/09 00:03:06;;;;;;;11.75;5.93;;;;;;;;;;5055191;28;20036;-72
2023/11/09 00:05:32;;;;;;;10.48;5.65;;;;;;;;;;5056238;28;20017;-72
2023/11/09 00:07:57;;;;;;;9.90;5.65;;;;;;;;;;5056185;28;20029;-72
2023/11/09 00:10:22;;;;;;;10.50;6.20;;;;;;;;;;5055661;28;20386;-72
2023/11/09 00:12:50;;;;;;;11.02;5.88;;;;;;;;;;5054763;28;20021;-72
2023/11/09 00:15:17;;;;;;;11.02;5.60;;;;;;;;;;5056039;28;20025;-72
2023/11/09 00:17:43;;;;;;;14.90;6.30;;;;;;;;;;5038398;28;20025;-72
2023/11/09 00:20:10;;;;;;;8.88;5.55;;;;;;;;;;5054883;28;20101;-72
2023/11/09 00:22:35;;;;;;;8.18;5.13;;;;;;;;;;5055668;28;20485;-71
2023/11/09 00:25:00;;;;;;;12.55;5.75;;;;;;;;;;5054928;28;20036;-72
2023/11/09 00:27:25;;;;;;;10.23;5.43;;;;;;;;;;5055927;28;20111;-71
2023/11/09 00:29:51;;;;;;;9.70;5.03;;;;;;;;;;5056004;28;20040;-71
2023/11/09 00:32:16;;;;;;;8.73;4.97;;;;;;;;;;5055880;28;20081;-71
2023/11/09 00:34:43;;;;;;;7.75;4.68;;;;;;;;;;5055205;28;20021;-71
2023/11/09 00:37:08;;;;;;;8.93;5.68;;;;;;;;;;5054573;28;20017;-71
2023/11/09 00:39:34;;;;;;;12.35;4.50;;;;;;;;;;5054585;28;20032;-71
2023/11/09 00:41:59;;;;;;;8.48;5.05;;;;;;;;;;5055679;28;20040;-71
2023/11/09 00:44:24;;;;;;;7.80;5.43;;;;;;;;;;5055134;28;20025;-71
2023/11/09 00:46:50;;;;;;;8.73;4.90;;;;;;;;;;5055578;28;20025;-71
2023/11/09 00:49:16;;;;;;;8.98;5.32;;;;;;;;;;5055715;28;20462;-71
2023/11/09 00:51:42;;;;;;;9.40;5.80;;;;;;;;;;5055499;28;20099;-71
2023/11/09 00:54:07;;;;;;;13.90;5.72;;;;;;;;;;5054284;28;20493;-71
2023/11/09 00:56:33;;;;;;;6.85;5.20;;;;;;;;;;5042525;28;20028;-72
2023/11/09 00:58:58;;;;;;;9.90;4.72;;;;;;;;;;5058466;28;20512;-72
2023/11/09 01:01:23;;;;;;;9.45;4.75;;;;;;;;;;5075214;28;20017;-72
2023/11/09 01:03:49;;;;;;;8.13;5.13;;;;;;;;;;5074699;28;20024;-72
2023/11/09 01:06:15;;;;;;;7.82;5.32;;;;;;;;;;5064178;28;20605;-72
2023/11/09 01:08:40;;;;;;;9.18;4.18;;;;;;;;;;5054435;28;20037;-72
2023/11/09 01:11:06;;;;;;;11.25;5.53;;;;;;;;;;5037677;28;20108;-72
2023/11/09 01:13:34;;;;;;;8.90;5.03;;;;;;;;;;5071382;28;20484;-72
2023/11/09 01:16:01;;;;;;;13.30;5.80;;;;;;;;;;5056481;28;20035;-71
2023/11/09 01:18:26;;;;;;;8.25;4.93;;;;;;;;;;5057106;28;20024;-72
2023/11/09 01:20:51;;;;;;;8.70;4.85;;;;;;;;;;5073659;28;20070;-72
2023/11/09 01:23:18;;;;;;;9.45;4.78;;;;;;;;;;5073716;28;20522;-72
2023/11/09 01:25:43;;;;;;;12.55;5.72;;;;;;;;;;5056234;28;20504;-72
2023/11/09 01:28:09;;;;;;;11.88;5.50;;;;;;;;;;5061599;28;20065;-71
2023/11/09 01:30:34;;;;;;;11.68;6.93;;;;;;;;;;5036284;28;20025;-71
2023/11/09 01:32:59;;;;;;;9.98;6.13;;;;;;;;;;5054266;28;20474;-72
2023/11/09 01:35:24;;;;;;;9.82;5.57;;;;;;;;;;5057019;28;20031;-72
2023/11/09 01:37:50;;;;;;;11.13;6.13;;;;;;;;;;5074275;28;20070;-72
2023/11/09 01:40:15;;;;;;;12.70;6.38;;;;;;;;;;5073880;28;20028;-72
2023/11/09 01:42:41;;;;;;;11.73;5.80;;;;;;;;;;5074240;28;20474;-72
2023/11/09 01:45:07;;;;;;;10.25;5.70;;;;;;;;;;5056181;28;20028;-72
2023/11/09 01:47:33;;;;;;;10.32;5.90;;;;;;;;;;5074515;28;20025;-72
2023/11/09 01:49:58;;;;;;;10.98;6.30;;;;;;;;;;5056062;28;20078;-72
2023/11/09 01:52:25;;;;;;;10.20;6.07;;;;;;;;;;5055729;28;20024;-72
2023/11/09 01:54:50;;;;;;;10.77;6.28;;;;;;;;;;5056224;28;20501;-72
2023/11/09 01:57:18;;;;;;;10.23;5.30;;;;;;;;;;5074229;28;20029;-72
2023/11/09 01:59:45;;;;;;;11.07;6.30;;;;;;;;;;5055774;28;20027;-73
2023/11/09 02:02:11;;;;;;;8.65;5.15;;;;;;;;;;5055432;28;20024;-72
2023/11/09 02:05:01;;;;;;;12.98;5.97;;;;;;;;;;5056045;28;20032;-72
2023/11/09 02:07:27;;;;;;;8.43;5.40;;;;;;;;;;5055771;28;20390;-72
2023/11/09 02:09:53;;;;;;;9.27;5.40;;;;;;;;;;5073238;28;20107;-72
2023/11/09 02:12:18;;;;;;;8.65;5.00;;;;;;;;;;5073346;28;20028;-72
2023/11/09 02:14:44;;;;;;;9.93;5.22;;;;;;;;;;5073721;28;20481;-72
2023/11/09 02:17:10;;;;;;;10.20;5.75;;;;;;;;;;5055252;28;20042;-72
2023/11/09 02:19:35;;;;;;;9.93;5.10;;;;;;;;;;5073863;28;20021;-72
2023/11/09 02:22:01;;;;;;;10.05;5.22;;;;;;;;;;5073787;28;20027;-72
2023/11/09 02:24:27;;;;;;;8.05;4.72;;;;;;;;;;5054640;28;20111;-72
2023/11/09 02:26:52;;;;;;;11.68;5.40;;;;;;;;;;5073682;28;20038;-72
2023/11/09 02:29:20;;;;;;;9.85;5.38;;;;;;;;;;5055539;28;20026;-72
2023/11/09 02:31:45;;;;;;;8.63;5.30;;;;;;;;;;5073265;28;20543;-72
2023/11/09 02:34:11;;;;;;;9.68;5.70;;;;;;;;;;5073473;28;20111;-72
2023/11/09 02:36:36;;;;;;;10.82;5.25;;;;;;;;;;5054842;28;20036;-72
2023/11/09 02:39:02;;;;;;;8.88;5.18;;;;;;;;;;5073033;28;20027;-72
2023/11/09 02:41:27;;;;;;;10.65;5.25;;;;;;;;;;5055652;28;20028;-72
2023/11/09 02:43:53;;;;;;;7.88;4.65;;;;;;;;;;5073392;28;20029;-72
2023/11/09 02:46:18;;;;;;;9.02;4.20;;;;;;;;;;5072710;28;20028;-72
2023/11/09 02:48:43;;;;;;;6.93;4.10;;;;;;;;;;5055356;28;20032;-72
2023/11/09 02:51:09;;;;;;;8.73;5.07;;;;;;;;;;5073208;28;20020;-72
2023/11/09 02:53:35;;;;;;;7.20;4.78;;;;;;;;;;5055500;28;20470;-72
2023/11/09 02:56:01;;;;;;;8.52;4.32;;;;;;;;;;5072760;28;20370;-72
2023/11/09 02:58:26;;;;;;;7.25;3.88;;;;;;;;;;5055390;28;20070;-72
2023/11/09 03:00:52;;;;;;;6.78;4.43;;;;;;;;;;5073241;28;20028;-72
2023/11/09 03:03:17;;;;;;;6.97;4.35;;;;;;;;;;5055419;28;20025;-72
2023/11/09 03:05:43;;;;;;;7.78;4.60;;;;;;;;;;5072823;28;20029;-72
2023/11/09 03:08:09;;;;;;;7.13;4.22;;;;;;;;;;5073230;28;20024;-72
2023/11/09 03:10:35;;;;;;;6.40;3.83;;;;;;;;;;5070511;28;20031;-72
2023/11/09 03:13:02;;;;;;;6.82;3.60;;;;;;;;;;5073097;28;20029;-72
2023/11/09 03:15:28;;;;;;;6.78;4.25;;;;;;;;;;5072509;28;20497;-72
2023/11/09 03:17:54;;;;;;;6.70;3.75;;;;;;;;;;5035341;28;20025;-72
2023/11/09 03:20:20;;;;;;;6.45;3.53;;;;;;;;;;5053131;28;20506;-72
2023/11/09 03:22:45;;;;;;;5.57;3.38;;;;;;;;;;5072914;28;20021;-72
2023/11/09 03:25:10;;;;;;;7.07;3.97;;;;;;;;;;5054575;28;20056;-72
2023/11/09 03:27:36;;;;;;;6.78;3.80;;;;;;;;;;5055066;28;20202;-72
2023/11/09 03:30:01;;;;;;;7.63;4.00;;;;;;;;;;5054873;28;20047;-72
2023/11/09 03:32:26;;;;;;;5.25;3.38;;;;;;;;;;5073012;28;20041;-72
2023/11/09 03:34:52;;;;;;;6.53;3.63;;;;;;;;;;5072317;28;20032;-72
2023/11/09 03:37:17;;;;;;;6.75;4.05;;;;;;;;;;5072798;28;20079;-72
2023/11/09 03:39:42;;;;;;;5.78;3.50;;;;;;;;;;5072874;28;20036;-72
2023/11/09 03:42:08;;;;;;;6.22;3.78;;;;;;;;;;5054683;28;20017;-72
2023/11/09 03:44:37;;;;;;;5.43;3.83;;;;;;;;;;5054741;28;20021;-72
2023/11/09 03:47:03;;;;;;;6.57;4.15;;;;;;;;;;5054682;28;20025;-71
2023/11/09 03:49:28;;;;;;;6.60;3.83;;;;;;;;;;5076292;28;20024;-72
2023/11/09 03:51:54;;;;;;;6.15;3.85;;;;;;;;;;5076317;28;20032;-72
2023/11/09 03:54:19;;;;;;;5.82;3.40;;;;;;;;;;5075617;28;20024;-72
2023/11/09 03:56:44;;;;;;;6.28;3.58;;;;;;;;;;5076094;28;20063;-72
2023/11/09 03:59:09;;;;;;;6.28;3.42;;;;;;;;;;5076180;28;20025;-72
2023/11/09 04:01:35;;;;;;;5.05;3.40;;;;;;;;;;5075234;28;20024;-72
2023/11/09 04:04:01;;;;;;;8.45;3.58;;;;;;;;;;5075488;28;20028;-72
2023/11/09 04:06:27;;;;;;;5.25;3.05;;;;;;;;;;5076223;28;20074;-72
2023/11/09 04:08:52;;;;;;;6.07;3.17;;;;;;;;;;5073681;28;20389;-72
2023/11/09 04:11:17;;;;;;;9.55;3.85;;;;;;;;;;5055975;28;20100;-72
2023/11/09 04:13:43;;;;;;;4.40;2.75;;;;;;;;;;5037481;28;20597;-72
2023/11/09 04:16:08;;;;;;;8.45;3.65;;;;;;;;;;5068344;28;20047;-72
2023/11/09 04:18:34;;;;;;;6.57;3.72;;;;;;;;;;5057895;28;20041;-71
2023/11/09 04:20:59;;;;;;;7.05;4.38;;;;;;;;;;5057572;28;20024;-71
2023/11/09 04:23:25;;;;;;;6.85;3.58;;;;;;;;;;5076097;28;20020;-72
2023/11/09 04:25:52;;;;;;;6.70;4.07;;;;;;;;;;5057868;28;20016;-72
2023/11/09 04:28:18;;;;;;;8.15;4.00;;;;;;;;;;5074816;28;20093;-72
2023/11/09 04:30:43;;;;;;;8.10;4.15;;;;;;;;;;5075662;28;20021;-72
2023/11/09 04:33:09;;;;;;;8.45;3.92;;;;;;;;;;5075391;28;20021;-72
2023/11/09 04:35:39;;;;;;;5.95;3.80;;;;;;;;;;5075671;28;20047;-72
2023/11/09 04:38:05;;;;;;;5.78;4.57;;;;;;;;;;5075890;28;20016;-72
2023/11/09 04:40:30;;;;;;;6.50;3.65;;;;;;;;;;5058980;28;20537;-72
2023/11/09 04:42:59;;;;;;;5.35;3.85;;;;;;;;;;5055303;28;20029;-72
2023/11/09 04:45:25;;;;;;;6.32;3.72;;;;;;;;;;5044172;28;20404;-72
2023/11/09 04:47:55;;;;;;;5.05;3.15;;;;;;;;;;5057321;28;20048;-72
2023/11/09 04:50:28;;;;;;;5.63;3.35;;;;;;;;;;5075012;28;20029;-72
2023/11/09 04:53:03;;;;;;;5.70;3.58;;;;;;;;;;5056345;28;20030;-72
2023/11/09 04:55:42;;;;;;;6.72;3.80;;;;;;;;;;5057017;28;20071;-72
2023/11/09 05:09:05;;;;;;;5.72;3.20;;;;;;;;;;5059804;28;20078;-72
2023/11/09 05:11:30;;;;;;;4.30;2.83;;;;;;;;;;5069742;28;20025;-72
2023/11/09 05:13:55;;;;;;;4.72;3.05;;;;;;;;;;5036666;28;20478;-72
2023/11/09 05:16:21;;;;;;;3.53;2.35;;;;;;;;;;5054429;28;20029;-72
2023/11/09 05:18:47;;;;;;;5.57;2.47;;;;;;;;;;5072376;28;20024;-72
2023/11/09 05:21:13;;;;;;;4.57;2.25;;;;;;;;;;5074337;28;20500;-72
2023/11/09 05:23:38;;;;;;;3.17;2.33;;;;;;;;;;5056496;28;20046;-72
2023/11/09 05:26:03;;;;;;;3.15;2.50;;;;;;;;;;5040535;28;20378;-72
2023/11/09 05:28:29;;;;;;;3.47;2.10;;;;;;;;;;5073791;28;20477;-71
2023/11/09 05:30:54;;;;;;;5.07;2.30;;;;;;;;;;5074453;28;20021;-72
2023/11/09 05:33:20;;;;;;;4.72;2.28;;;;;;;;;;5074189;28;20516;-72
2023/11/09 05:35:45;;;;;;;4.18;2.22;;;;;;;;;;5074115;28;20023;-72
2023/11/09 05:38:11;;;;;;;5.80;2.53;;;;;;;;;;5073644;28;20023;-71
2023/11/09 05:40:39;;;;;;;3.33;2.20;;;;;;;;;;5073963;28;20035;-72
2023/11/09 05:43:05;;;;;;;3.40;2.33;;;;;;;;;;5074313;28;20031;-72
2023/11/09 05:45:30;;;;;;;4.07;2.67;;;;;;;;;;5073983;28;20107;-72
2023/11/09 05:47:56;;;;;;;5.65;2.80;;;;;;;;;;5073991;28;20062;-72
2023/11/09 05:50:21;;;;;;;4.10;2.67;;;;;;;;;;5055960;28;20088;-72
2023/11/09 05:52:47;;;;;;;5.32;2.70;;;;;;;;;;5068165;28;20565;-72
2023/11/09 05:55:12;;;;;;;5.80;2.80;;;;;;;;;;5054119;28;20509;-72
2023/11/09 05:57:39;;;;;;;6.13;3.30;;;;;;;;;;5056186;28;20035;-72
2023/11/09 06:00:05;;;;;;;4.40;2.95;;;;;;;;;;5073725;28;20108;-72
2023/11/09 06:02:31;;;;;;;7.35;3.30;;;;;;;;;;5051701;28;20031;-72
2023/11/09 06:04:56;;;;;;;5.88;3.47;;;;;;;;;;5055981;28;20029;-72
2023/11/09 06:07:22;;;;;;;5.88;3.53;;;;;;;;;;5073745;28;20025;-72
2023/11/09 06:09:48;;;;;;;6.82;4.13;;;;;;;;;;5072790;28;20020;-72
2023/11/09 06:12:15;;;;;;;7.95;3.47;;;;;;;;;;5073818;28;20081;-72
2023/11/09 06:14:41;;;;;;;6.25;3.97;;;;;;;;;;5068888;28;20441;-72
2023/11/09 06:17:06;;;;;;;7.03;4.18;;;;;;;;;;5056704;28;20089;-72
2023/11/09 06:19:32;;;;;;;5.05;3.33;;;;;;;;;;5055171;28;20020;-72
2023/11/09 06:21:58;;;;;;;6.22;3.95;;;;;;;;;;5056694;28;20020;-72
2023/11/09 06:24:23;;;;;;;8.07;4.07;;;;;;;;;;5035296;28;20025;-72
2023/11/09 06:26:53;;;;;;;7.03;3.63;;;;;;;;;;5047054;28;20452;-72
2023/11/09 06:29:18;;;;;;;8.68;4.55;;;;;;;;;;5073705;28;20028;-72
2023/11/09 06:31:43;;;;;;;7.22;4.43;;;;;;;;;;5071907;28;20021;-72
2023/11/09 06:34:14;;;;;;;10.70;4.38;;;;;;;;;;5055470;28;20367;-71
2023/11/09 06:36:45;;;;;;;8.57;4.65;;;;;;;;;;5060608;28;20355;-72
2023/11/09 06:39:16;;;;;;;7.85;4.55;;;;;;;;;;5056069;28;20024;-72
2023/11/09 06:41:45;;;;;;;8.35;4.65;;;;;;;;;;5073094;28;20063;-72
2023/11/09 06:44:11;;;;;;;8.10;4.25;;;;;;;;;;5051169;28;20078;-72
2023/11/09 06:46:38;;;;;;;9.05;5.25;;;;;;;;;;5053302;28;20104;-72
2023/11/09 06:49:07;;;;;;;10.57;4.57;;;;;;;;;;5059528;28;20027;-72
2023/11/09 06:51:33;;;;;;;6.55;4.25;;;;;;;;;;5035052;28;20386;-72
2023/11/09 06:53:58;;;;;;;6.05;3.45;;;;;;;;;;5056569;28;20021;-72
2023/11/09 06:56:23;;;;;;;8.45;4.60;;;;;;;;;;5073289;28;20020;-72
2023/11/09 06:58:49;;;;;;;6.05;3.72;;;;;;;;;;5054329;28;20039;-72
2023/11/09 07:01:14;;;;;;;8.13;4.28;;;;;;;;;;5073033;28;20098;-72
2023/11/09 07:03:39;;;;;;;9.82;4.40;;;;;;;;;;5052125;28;20392;-72
2023/11/09 07:06:06;;;;;;;12.00;5.47;;;;;;;;;;5072263;28;20082;-72
2023/11/09 07:08:31;;;;;;;8.80;5.32;;;;;;;;;;5064131;28;20444;-72
2023/11/09 07:10:58;;;;;;;10.88;5.32;;;;;;;;;;5052643;28;20021;-72
2023/11/09 07:13:23;;;;;;;9.80;5.97;;;;;;;;;;5057500;28;20017;-72
2023/11/09 07:15:49;;;;;;;10.13;5.13;;;;;;;;;;5034238;28;20039;-72
2023/11/09 07:18:14;;;;;;;9.38;5.18;;;;;;;;;;5054249;28;20017;-72
2023/11/09 07:20:41;;;;;;;8.48;5.22;;;;;;;;;;5072454;28;20069;-72
2023/11/09 07:23:07;;;;;;;9.23;5.00;;;;;;;;;;5057368;28;20020;-72
2023/11/09 07:25:38;;;;;;;8.88;5.20;;;;;;;;;;5053537;28;20478;-72
2023/11/09 07:28:05;;;;;;;8.80;5.10;;;;;;;;;;5055794;28;20493;-72
2023/11/09 07:30:32;;;;;;;10.02;5.00;;;;;;;;;;5045716;28;20025;-72
2023/11/09 07:33:01;;;;;;;7.55;4.57;;;;;;;;;;5056603;28;20040;-72
2023/11/09 07:35:29;;;;;;;7.93;5.03;;;;;;;;;;5021872;28;20071;-72
2023/11/09 07:37:55;;;;;;;7.22;3.78;;;;;;;;;;5057467;28;20431;-72
2023/11/09 07:40:20;;;;;;;7.70;4.10;;;;;;;;;;5058126;28;20202;-72
2023/11/09 07:42:45;;;;;;;7.47;4.13;;;;;;;;;;5047434;28;20383;-72
2023/11/09 07:45:11;;;;;;;6.13;4.15;;;;;;;;;;5055780;28;20100;-72
2023/11/09 07:47:37;;;;;;;7.32;3.80;;;;;;;;;;5066555;28;20024;-72
2023/11/09 07:50:04;;;;;;;7.13;4.00;;;;;;;;;;5075594;28;20410;-72
2023/11/09 07:52:30;;;;;;;6.40;3.75;;;;;;;;;;5076088;28;20035;-71
2023/11/09 07:54:55;;;;;;;7.18;3.80;;;;;;;;;;5057676;28;20021;-72
2023/11/09 07:57:20;;;;;;;5.75;3.22;;;;;;;;;;5075755;28;20016;-72
2023/11/09 07:59:46;;;;;;;5.78;3.90;;;;;;;;;;5075926;28;20020;-71
2023/11/09 08:02:12;;;;;;;6.40;3.38;;;;;;;;;;5075110;28;20104;-72
2023/11/09 08:04:39;;;;;;;6.20;3.78;;;;;;;;;;5055233;28;20444;-72
2023/11/09 08:07:05;;;;;;;5.72;3.40;;;;;;;;;;5020950;28;20390;-72
2023/11/09 08:09:31;;;;;;;6.72;3.85;;;;;;;;;;5073390;28;20021;-72
2023/11/09 08:11:56;;;;;;;7.38;3.67;;;;;;;;;;5075020;28;20024;-72
2023/11/09 08:14:21;;;;;;;6.30;3.28;;;;;;;;;;5073005;28;20062;-72
2023/11/09 08:16:47;;;;;;;5.68;3.45;;;;;;;;;;5075352;28;20111;-71
2023/11/09 08:19:12;;;;;;;7.55;3.35;;;;;;;;;;5075087;28;20035;-71
2023/11/09 08:21:38;;;;;;;6.07;3.22;;;;;;;;;;5074814;28;20069;-72
2023/11/09 08:24:04;;;;;;;5.57;3.33;;;;;;;;;;5057561;28;20021;-71
2023/11/09 08:26:29;;;;;;;7.43;3.88;;;;;;;;;;5068589;28;20029;-72
2023/11/09 08:28:55;;;;;;;6.97;3.92;;;;;;;;;;5048384;28;20036;-72
2023/11/09 08:31:21;;;;;;;7.10;4.35;;;;;;;;;;5035683;28;20029;-71
2023/11/09 08:33:47;;;;;;;10.80;4.28;;;;;;;;;;5054353;28;20025;-72
2023/11/09 08:36:12;;;;;;;8.70;4.22;;;;;;;;;;5067352;28;20082;-72
2023/11/09 08:38:39;;;;;;;7.57;3.90;;;;;;;;;;5074713;28;20029;-72
2023/11/09 08:41:05;;;;;;;7.65;4.78;;;;;;;;;;5069909;28;20085;-72
2023/11/09 08:43:37;;;;;;;9.23;4.47;;;;;;;;;;5061442;28;20474;-71
2023/11/09 08:46:02;;;;;;;12.48;4.63;;;;;;;;;;5055010;28;20125;-71
2023/11/09 08:48:29;;;;;;;10.10;4.75;;;;;;;;;;5062708;28;20108;-71
2023/11/09 08:50:56;;;;;;;8.32;4.55;;;;;;;;;;5054915;28;20482;-71
2023/11/09 08:53:22;;;;;;;7.90;4.15;;;;;;;;;;5039313;28;20025;-72
2023/11/09 08:55:47;;;;;;;11.35;4.57;;;;;;;;;;5058997;28;20029;-72
2023/11/09 08:58:13;;;;;;;8.38;4.68;;;;;;;;;;5068640;28;20472;-71
2023/11/09 09:00:39;;;;;;;10.50;5.07;;;;;;;;;;5074402;28;20028;-71
2023/11/09 09:03:05;;;;;;;7.95;4.57;;;;;;;;;;5055836;28;20450;-72
2023/11/09 09:05:31;;;;;;;8.27;5.32;;;;;;;;;;5074467;28;20488;-71
2023/11/09 09:07:59;;;;;;;10.27;5.10;;;;;;;;;;5074283;28;20036;-71
2023/11/09 09:10:27;;;;;;;9.07;4.45;;;;;;;;;;5074259;28;20106;-72
2023/11/09 09:12:53;;;;;;;7.03;5.05;;;;;;;;;;5065223;28;20044;-71
2023/11/09 09:15:19;;;;;;;9.10;4.47;;;;;;;;;;5061442;28;20063;-71
2023/11/09 09:17:48;;;;;;;11.43;4.85;;;;;;;;;;5054272;28;20025;-71
2023/11/09 09:20:18;;;;;;;8.00;4.43;;;;;;;;;;5041341;28;20028;-71
2023/11/09 09:22:45;;;;;;;9.52;4.72;;;;;;;;;;5056367;28;20504;-71
2023/11/09 09:25:10;;;;;;;10.27;5.30;;;;;;;;;;5055963;28;20024;-71
2023/11/09 09:27:48;;;;;;;8.65;4.32;;;;;;;;;;5070888;28;20024;-71
2023/11/09 09:30:18;;;;;;;8.10;4.28;;;;;;;;;;5068274;28;20482;-71
2023/11/09 09:32:45;;;;;;;6.18;3.70;;;;;;;;;;5070098;28;20543;-71
2023/11/09 09:35:11;;;;;;;7.63;4.28;;;;;;;;;;5040882;28;20078;-71
2023/11/09 09:37:40;;;;;;;8.98;3.90;;;;;;;;;;5036024;28;20040;-72
2023/11/09 09:40:15;;;;;;;7.38;4.30;;;;;;;;;;5065014;28;20020;-71
2023/11/09 09:42:50;;;;;;;7.47;4.22;;;;;;;;;;5056352;28;20032;-71
2023/11/09 09:45:19;;;;;;;5.57;3.25;;;;;;;;;;5072942;28;20066;-71
2023/11/09 09:47:45;;;;;;;13.35;4.38;;;;;;;;;;5070491;28;20051;-72
2023/11/09 09:50:12;;;;;;;8.10;3.90;;;;;;;;;;5055994;28;20048;-71
2023/11/09 09:52:38;;;;;;;6.45;4.20;;;;;;;;;;5069789;28;20033;-71
2023/11/09 09:55:08;;;;;;;6.95;4.10;;;;;;;;;;5044834;28;20039;-71
2023/11/09 09:57:35;;;;;;;8.02;4.47;;;;;;;;;;5046419;28;20028;-71
2023/11/09 10:00:01;;;;;;;6.25;3.67;;;;;;;;;;5073462;28;20428;-71
2023/11/09 10:02:30;;;;;;;8.75;4.05;;;;;;;;;;5070377;28;20516;-71
2023/11/09 10:04:57;;;;;;;7.68;4.75;;;;;;;;;;5035784;28;20108;-71
2023/11/09 10:07:22;;;;;;;10.23;3.67;;;;;;;;;;5054147;28;20021;-71
2023/11/09 10:09:50;;;;;;;7.97;4.18;;;;;;;;;;5060742;28;20666;-71
2023/11/09 10:12:15;;;;;;;6.60;4.22;;;;;;;;;;5053224;28;20482;-71
2023/11/09 10:14:41;;;;;;;6.20;3.70;;;;;;;;;;5044260;28;20031;-71
2023/11/09 10:17:07;;;;;;;7.22;4.03;;;;;;;;;;5038292;28;20394;-71
2023/11/09 10:19:42;;;;;;;6.35;3.50;;;;;;;;;;5053467;28;20033;-71
2023/11/09 10:22:07;;;;;;;8.07;4.00;;;;;;;;;;5057107;28;20425;-72
2023/11/09 10:24:33;;;;;;;7.93;4.30;;;;;;;;;;5052615;28;20025;-72
2023/11/09 10:26:59;;;;;;;6.70;3.42;;;;;;;;;;5038299;28;20074;-71
2023/11/09 10:29:25;;;;;;;8.88;3.67;;;;;;;;;;5056713;28;20025;-71
2023/11/09 10:31:53;;;;;;;8.80;4.22;;;;;;;;;;5052700;28;20095;-72
2023/11/09 10:34:19;;;;;;;8.13;4.22;;;;;;;;;;5052806;28;20028;-72
2023/11/09 10:36:44;;;;;;;7.22;3.90;;;;;;;;;;5052764;28;20405;-71
2023/11/09 10:39:16;;;;;;;4.28;2.00;;;;;;;;;;5057459;28;20023;-71
2023/11/09 10:41:44;;;;;;;5.03;1.88;;;;;;;;;;5052835;28;20021;-71
2023/11/09 10:44:10;;;;;;;2.70;1.23;;;;;;;;;;5034637;28;20478;-71
2023/11/09 10:46:37;;;;;;;5.05;1.70;;;;;;;;;;5068860;28;20127;-71
2023/11/09 10:49:06;;;;;;;6.40;2.35;;;;;;;;;;5072112;28;20389;-71
2023/11/09 10:51:33;;;;;;;6.07;1.70;;;;;;;;;;5054600;28;20012;-70
2023/11/09 10:54:01;;;;;;;11.50;3.30;;;;;;;;;;5054805;28;20436;-71
2023/11/09 10:56:29;;;;;;;10.80;3.10;;;;;;;;;;5056597;28;20113;-71
2023/11/09 10:58:56;;;;;;;13.65;6.13;;;;;;;;;;5059180;28;20016;-71
2023/11/09 11:01:26;;;;;;;11.05;2.72;;;;;;;;;;5076501;28;20036;-71
2023/11/09 11:03:57;;;;;;;12.60;4.38;;;;;;;;;;5058213;28;20052;-71
2023/11/09 11:06:29;;;;;;;;;;;;;;;;;;5077151;28;20091;-72
2023/11/09 11:09:07;;;;;;;14.57;3.10;;;;;;;;;;5076623;28;19913;-72
2023/11/09 11:11:34;;;;;;;15.88;3.30;;;;;;;;;;5058638;28;20052;-72
2023/11/09 11:14:03;;;;;;;6.90;3.67;;;;;;;;;;5056336;28;20044;-71
2023/11/09 11:16:56;;;;;;;15.18;4.63;;;;;;;;;;5038532;28;20087;-71
2023/11/09 11:19:49;;;;;;;15.10;6.13;;;;;;;;;;5070756;28;20328;-70
2023/11/09 11:22:44;;;;;;;12.82;3.80;;;;;;;;;;5076124;28;20095;-70
2023/11/09 11:25:38;;;;;;;17.67;7.53;;;;;;;;;;5053913;28;20401;-70
2023/11/09 11:28:06;;;;;;;10.57;2.72;;;;;;;;;;5037764;28;20035;-70
2023/11/09 11:30:33;;;;;;;12.75;3.40;;;;;;;;;;5046931;28;20020;-70
2023/11/09 11:33:16;;;;;;;12.27;3.25;;;;;;;;;;5038379;28;20029;-70
2023/11/09 11:35:48;;;;;;;10.68;3.42;;;;;;;;;;5039665;28;20422;-70
2023/11/09 11:38:13;;;;;;;13.88;3.88;;;;;;;;;;5058623;28;20036;-71
2023/11/09 11:40:39;;;;;;;15.43;3.57;;;;;;;;;;5075797;28;20100;-70
2023/11/09 11:43:05;;;;;;;14.73;3.47;;;;;;;;;;5057587;28;20028;-70
2023/11/09 11:45:30;;;;;;;11.30;2.85;;;;;;;;;;5057741;28;20028;-70
2023/11/09 11:48:01;;;;;;;14.52;4.13;;;;;;;;;;5057111;28;20020;-70
2023/11/09 11:50:26;;;;;;;21.00;7.40;;;;;;;;;;5053565;28;20021;-71
2023/11/09 11:52:57;;;;;;;10.10;2.83;;;;;;;;;;5046470;28;20074;-71
2023/11/09 11:55:28;;;;;;;9.55;3.95;;;;;;;;;;5053599;28;20020;-71
2023/11/09 11:58:03;;;;;;;15.20;3.38;;;;;;;;;;5049422;28;20435;-71
2023/11/09 12:00:42;;;;;;;13.35;3.20;;;;;;;;;;5055318;28;20029;-70
2023/11/09 12:03:10;;;;;;;20.33;3.15;;;;;;;;;;5060266;28;20544;-70
2023/11/09 12:05:40;;;;;;;7.25;2.10;;;;;;;;;;5044193;28;20039;-70
2023/11/09 12:08:11;;;;;;;16.25;4.18;;;;;;;;;;5062119;28;20023;-70
2023/11/09 12:10:39;;;;;;;13.48;3.42;;;;;;;;;;5053405;28;20047;-71
2023/11/09 12:13:04;;;;;;;14.75;5.22;;;;;;;;;;5075039;28;20024;-70
2023/11/09 12:15:29;;;;;;;7.43;2.47;;;;;;;;;;5075115;28;20091;-70
2023/11/09 12:17:55;;;;;;;7.82;2.22;;;;;;;;;;5074577;28;20055;-71
2023/11/09 12:20:21;;;;;;;12.77;2.25;;;;;;;;;;5057259;28;20024;-70
2023/11/09 12:22:49;;;;;;;8.82;2.25;;;;;;;;;;5057166;28;20478;-71
2023/11/09 12:25:14;;;;;;;9.73;2.67;;;;;;;;;;5075211;28;20379;-71
2023/11/09 12:27:41;;;;;;;12.88;2.75;;;;;;;;;;5074629;28;20074;-70
2023/11/09 12:30:07;;;;;;;8.20;2.20;;;;;;;;;;5040391;28;20078;-71
2023/11/09 12:32:32;;;;;;;9.43;2.28;;;;;;;;;;5056598;28;20021;-70
2023/11/09 12:35:00;;;;;;;15.27;2.70;;;;;;;;;;5074665;28;20063;-71
2023/11/09 12:37:31;;;;;;;10.18;2.78;;;;;;;;;;5074562;28;20099;-71
2023/11/09 12:39:57;;;;;;;10.48;2.40;;;;;;;;;;5057269;28;20120;-70
2023/11/09 12:42:25;;;;;;;15.13;3.45;;;;;;;;;;5056844;28;20035;-70
2023/11/09 12:44:54;;;;;;;13.68;2.72;;;;;;;;;;5074638;28;20039;-71
2023/11/09 12:47:25;;;;;;;13.90;3.28;;;;;;;;;;5074540;28;20489;-71
2023/11/09 12:49:53;;;;;;;9.70;2.35;;;;;;;;;;5056851;28;20021;-71
2023/11/09 12:52:21;;;;;;;15.13;3.03;;;;;;;;;;5074507;28;20109;-71
2023/11/09 12:54:47;;;;;;;17.40;3.05;;;;;;;;;;5074164;28;20035;-70
2023/11/09 12:57:17;;;;;;;16.77;3.40;;;;;;;;;;5074132;28;20389;-70
2023/11/09 12:59:45;;;;;;;11.57;2.95;;;;;;;;;;5056986;28;20474;-70
2023/11/09 13:02:28;;;;;;;17.15;3.17;;;;;;;;;;5074675;28;20115;-71
2023/11/09 13:04:54;;;;;;;11.52;2.55;;;;;;;;;;5069497;28;20021;-71
2023/11/09 13:07:24;;;;;;;14.68;2.42;;;;;;;;;;5065612;28;20042;-71
2023/11/09 13:10:16;;;;;;;13.35;2.90;;;;;;;;;;5057071;28;20031;-71
2023/11/09 13:12:36;;;;;;;10.98;2.50;;;;;;;;;;5060273;28;20033;-71
2023/11/09 13:17:33;;;;;;;12.43;3.70;;;;;;;;;;5073811;28;20020;-71
2023/11/09 13:20:00;;;;;;;16.30;2.75;;;;;;;;;;5072931;28;20023;-71
2023/11/09 13:22:28;;;;;;;13.85;2.47;;;;;;;;;;5073711;28;20020;-71
2023/11/09 13:24:54;;;;;;;9.25;2.30;;;;;;;;;;5073751;28;20028;-71
2023/11/09 13:27:24;;;;;;;14.98;2.30;;;;;;;;;;5060536;28;20465;-71
2023/11/09 13:29:49;;;;;;;13.40;2.45;;;;;;;;;;5073900;28;20032;-71
2023/11/09 13:32:20;;;;;;;8.75;2.28;;;;;;;;;;5073836;28;20016;-71
2023/11/09 13:34:58;;;;;;;9.43;2.40;;;;;;;;;;5073324;28;20093;-70
2023/11/09 13:37:32;;;;;;;10.40;1.98;;;;;;;;;;5073349;28;20016;-71
2023/11/09 13:42:41;;;;;;;16.73;2.20;;;;;;;;;;5061952;28;20110;-71
2023/11/09 13:45:33;;;;;;;7.40;2.40;;;;;;;;;;5073204;28;20048;-71
2023/11/09 13:47:54;;;;;;;7.68;1.88;;;;;;;;;;5058614;28;20059;-71
2023/11/09 13:50:22;;;;;;;4.25;1.55;;;;;;;;;;5055444;28;20477;-71
2023/11/09 13:52:51;;;;;;;13.52;2.72;;;;;;;;;;5073652;28;20036;-71
2023/11/09 13:55:47;;;;;;;7.20;2.38;;;;;;;;;;5073316;28;20069;-71
2023/11/09 13:58:15;;;;;;;13.32;2.25;;;;;;;;;;5073089;28;20393;-71
2023/11/09 14:00:41;;;;;;;8.73;2.03;;;;;;;;;;5073185;28;20389;-71
2023/11/09 14:03:06;;;;;;;10.63;1.90;;;;;;;;;;5059425;28;20024;-71
2023/11/09 14:05:31;;;;;;;9.07;1.80;;;;;;;;;;5073092;28;20021;-71
2023/11/09 14:07:56;;;;;;;6.40;1.65;;;;;;;;;;5055136;28;20039;-70
2023/11/09 14:10:28;;;;;;;9.85;2.25;;;;;;;;;;5064223;28;20032;-71
2023/11/09 14:13:09;;;;;;;6.95;1.95;;;;;;;;;;5069458;28;20024;-71
2023/11/09 14:15:41;;;;;;;10.23;2.20;;;;;;;;;;5073041;28;20032;-71
2023/11/09 14:20:59;;;;;;;11.32;2.00;;;;;;;;;;5062803;28;20032;-70
2023/11/09 14:23:24;;;;;;;5.25;1.50;;;;;;;;;;5041449;28;20033;-70
2023/11/09 14:25:50;;;;;;;10.00;1.85;;;;;;;;;;5063544;28;20393;-70
2023/11/09 14:28:16;;;;;;;5.28;1.40;;;;;;;;;;5060729;28;20529;-71
2023/11/09 14:30:47;;;;;;;3.03;1.70;;;;;;;;;;5065250;28;20028;-71
2023/11/09 14:33:13;;;;;;;3.60;1.60;;;;;;;;;;5061061;28;20024;-71
2023/11/09 14:35:42;;;;;;;4.63;1.50;;;;;;;;;;5060573;28;20108;-72
2023/11/09 14:38:08;;;;;;;8.48;2.13;;;;;;;;;;5057617;28;20067;-71
2023/11/09 14:40:35;;;;;;;8.35;1.63;;;;;;;;;;5058084;28;20559;-71
2023/11/09 14:43:02;;;;;;;7.00;1.50;;;;;;;;;;5043873;28;20041;-71
2023/11/09 14:45:27;;;;;;;4.85;1.85;;;;;;;;;;5054170;28;20439;-71
2023/11/09 14:47:53;;;;;;;5.63;1.65;;;;;;;;;;5040372;28;20139;-70
2023/11/09 14:50:19;;;;;;;4.05;2.03;;;;;;;;;;5058288;28;20482;-70
2023/11/09 14:53:32;;;;;;;3.28;1.65;;;;;;;;;;5057235;28;20029;-70
2023/11/09 14:55:32;;;;;;;2.90;1.40;;;;;;;;;;5049341;28;20120;-69
2023/11/09 14:57:59;;;;;;;9.50;1.95;;;;;;;;;;5062022;28;20052;-69